sensor_id;sensor_type;location;lat;lon;timestamp;temperature;humidity
67868;SHT31;54672;46.096;14.470;2023-06-05T00:00:29;16.05;94.80
67868;SHT31;54672;46.096;14.470;2023-06-05T00:02:55;16.14;94.02
67868;SHT31;54672;46.096;14.470;2023-06-05T00:05:20;16.24;94.04
67868;SHT31;54672;46.096;14.470;2023-06-05T00:07:46;16.32;93.42
67868;SHT31;54672;46.096;14.470;2023-06-05T00:10:11;16.36;93.35
67868;SHT31;54672;46.096;14.470;2023-06-05T00:12:38;16.42;92.84
67868;SHT31;54672;46.096;14.470;2023-06-05T00:15:05;16.45;92.68
67868;SHT31;54672;46.096;14.470;2023-06-05T00:17:31;16.49;92.71
67868;SHT31;54672;46.096;14.470;2023-06-05T00:19:56;16.45;92.87
67868;SHT31;54672;46.096;14.470;2023-06-05T00:22:28;16.47;92.66
67868;SHT31;54672;46.096;14.470;2023-06-05T00:24:53;16.48;92.63
67868;SHT31;54672;46.096;14.470;2023-06-05T00:27:19;16.47;92.67
67868;SHT31;54672;46.096;14.470;2023-06-05T00:29:45;16.38;92.91
67868;SHT31;54672;46.096;14.470;2023-06-05T00:32:10;16.32;93.31
67868;SHT31;54672;46.096;14.470;2023-06-05T00:34:35;16.26;93.44
67868;SHT31;54672;46.096;14.470;2023-06-05T00:37:01;16.28;93.56
67868;SHT31;54672;46.096;14.470;2023-06-05T00:39:27;16.26;93.57
67868;SHT31;54672;46.096;14.470;2023-06-05T00:41:52;16.25;93.77
67868;SHT31;54672;46.096;14.470;2023-06-05T00:44:18;16.24;93.95
67868;SHT31;54672;46.096;14.470;2023-06-05T00:46:44;16.24;93.79
67868;SHT31;54672;46.096;14.470;2023-06-05T00:49:10;16.28;93.81
67868;SHT31;54672;46.096;14.470;2023-06-05T00:51:36;16.32;93.78
67868;SHT31;54672;46.096;14.470;2023-06-05T00:54:03;16.38;93.69
67868;SHT31;54672;46.096;14.470;2023-06-05T00:56:30;16.45;93.51
67868;SHT31;54672;46.096;14.470;2023-06-05T00:59:01;16.40;93.54
67868;SHT31;54672;46.096;14.470;2023-06-05T01:01:27;16.35;93.89
67868;SHT31;54672;46.096;14.470;2023-06-05T01:03:54;16.31;94.07
67868;SHT31;54672;46.096;14.470;2023-06-05T01:06:29;16.29;94.17
67868;SHT31;54672;46.096;14.470;2023-06-05T01:08:56;16.32;94.12
67868;SHT31;54672;46.096;14.470;2023-06-05T01:14:18;16.38;94.21
67868;SHT31;54672;46.096;14.470;2023-06-05T01:16:48;16.28;94.54
67868;SHT31;54672;46.096;14.470;2023-06-05T01:19:17;16.22;94.59
67868;SHT31;54672;46.096;14.470;2023-06-05T01:21:42;16.17;94.86
67868;SHT31;54672;46.096;14.470;2023-06-05T01:24:08;16.11;95.08
67868;SHT31;54672;46.096;14.470;2023-06-05T01:26:41;16.07;94.82
67868;SHT31;54672;46.096;14.470;2023-06-05T01:29:11;16.11;94.97
67868;SHT31;54672;46.096;14.470;2023-06-05T01:31:38;16.15;95.04
67868;SHT31;54672;46.096;14.470;2023-06-05T01:34:08;16.22;94.74
67868;SHT31;54672;46.096;14.470;2023-06-05T01:36:34;16.20;94.97
67868;SHT31;54672;46.096;14.470;2023-06-05T01:39:03;16.15;95.30
67868;SHT31;54672;46.096;14.470;2023-06-05T01:41:30;16.11;95.33
67868;SHT31;54672;46.096;14.470;2023-06-05T01:43:56;16.07;95.52
67868;SHT31;54672;46.096;14.470;2023-06-05T01:46:22;16.03;95.50
67868;SHT31;54672;46.096;14.470;2023-06-05T01:48:48;15.97;95.26
67868;SHT31;54672;46.096;14.470;2023-06-05T01:51:15;16.00;95.53
67868;SHT31;54672;46.096;14.470;2023-06-05T01:53:40;15.98;95.66
67868;SHT31;54672;46.096;14.470;2023-06-05T01:56:06;16.03;95.49
67868;SHT31;54672;46.096;14.470;2023-06-05T01:58:33;16.10;95.42
67868;SHT31;54672;46.096;14.470;2023-06-05T02:00:59;16.11;95.39
67868;SHT31;54672;46.096;14.470;2023-06-05T02:03:24;16.08;95.32
67868;SHT31;54672;46.096;14.470;2023-06-05T02:05:50;16.10;95.38
67868;SHT31;54672;46.096;14.470;2023-06-05T02:08:18;16.08;95.19
67868;SHT31;54672;46.096;14.470;2023-06-05T02:10:48;16.07;95.44
67868;SHT31;54672;46.096;14.470;2023-06-05T02:13:14;16.13;95.45
67868;SHT31;54672;46.096;14.470;2023-06-05T02:15:45;16.11;95.42
67868;SHT31;54672;46.096;14.470;2023-06-05T02:18:10;16.10;95.48
67868;SHT31;54672;46.096;14.470;2023-06-05T02:20:36;16.11;95.36
67868;SHT31;54672;46.096;14.470;2023-06-05T02:23:02;16.21;95.28
67868;SHT31;54672;46.096;14.470;2023-06-05T02:25:28;16.20;95.01
67868;SHT31;54672;46.096;14.470;2023-06-05T02:27:54;16.24;94.64
67868;SHT31;54672;46.096;14.470;2023-06-05T02:30:19;16.28;94.46
67868;SHT31;54672;46.096;14.470;2023-06-05T02:32:50;16.32;94.66
67868;SHT31;54672;46.096;14.470;2023-06-05T02:35:21;16.26;94.52
67868;SHT31;54672;46.096;14.470;2023-06-05T02:37:47;16.29;94.41
67868;SHT31;54672;46.096;14.470;2023-06-05T02:40:13;16.29;94.45
67868;SHT31;54672;46.096;14.470;2023-06-05T02:42:39;16.31;94.45
67868;SHT31;54672;46.096;14.470;2023-06-05T02:45:06;16.25;94.58
67868;SHT31;54672;46.096;14.470;2023-06-05T02:47:32;16.28;94.57
67868;SHT31;54672;46.096;14.470;2023-06-05T02:49:58;16.32;94.51
67868;SHT31;54672;46.096;14.470;2023-06-05T02:52:24;16.31;94.80
67868;SHT31;54672;46.096;14.470;2023-06-05T02:54:53;16.28;94.71
67868;SHT31;54672;46.096;14.470;2023-06-05T02:57:18;16.24;94.67
67868;SHT31;54672;46.096;14.470;2023-06-05T02:59:44;16.20;94.70
67868;SHT31;54672;46.096;14.470;2023-06-05T03:02:10;16.21;94.61
67868;SHT31;54672;46.096;14.470;2023-06-05T03:04:36;16.18;94.65
67868;SHT31;54672;46.096;14.470;2023-06-05T03:07:05;16.21;94.82
67868;SHT31;54672;46.096;14.470;2023-06-05T03:09:31;16.22;94.44
67868;SHT31;54672;46.096;14.470;2023-06-05T03:11:57;16.31;94.41
67868;SHT31;54672;46.096;14.470;2023-06-05T03:14:23;16.31;94.36
67868;SHT31;54672;46.096;14.470;2023-06-05T03:16:49;16.34;94.15
67868;SHT31;54672;46.096;14.470;2023-06-05T03:19:14;16.41;94.08
67868;SHT31;54672;46.096;14.470;2023-06-05T03:21:40;16.40;93.96
67868;SHT31;54672;46.096;14.470;2023-06-05T03:24:13;16.41;93.77
67868;SHT31;54672;46.096;14.470;2023-06-05T03:26:40;16.44;93.92
67868;SHT31;54672;46.096;14.470;2023-06-05T03:29:06;16.48;93.72
67868;SHT31;54672;46.096;14.470;2023-06-05T03:31:32;16.44;93.44
67868;SHT31;54672;46.096;14.470;2023-06-05T03:33:58;16.45;93.57
67868;SHT31;54672;46.096;14.470;2023-06-05T03:36:25;16.47;93.54
67868;SHT31;54672;46.096;14.470;2023-06-05T03:38:50;16.38;93.55
67868;SHT31;54672;46.096;14.470;2023-06-05T03:41:16;16.34;93.54
67868;SHT31;54672;46.096;14.470;2023-06-05T03:43:42;16.41;93.43
67868;SHT31;54672;46.096;14.470;2023-06-05T03:46:07;16.42;93.32
67868;SHT31;54672;46.096;14.470;2023-06-05T03:48:33;16.38;93.13
67868;SHT31;54672;46.096;14.470;2023-06-05T03:50:58;16.40;93.06
67868;SHT31;54672;46.096;14.470;2023-06-05T03:53:25;16.38;93.28
67868;SHT31;54672;46.096;14.470;2023-06-05T03:55:54;16.40;93.55
67868;SHT31;54672;46.096;14.470;2023-06-05T03:58:21;16.35;93.52
67868;SHT31;54672;46.096;14.470;2023-06-05T04:00:48;16.36;93.54
67868;SHT31;54672;46.096;14.470;2023-06-05T04:03:14;16.36;93.54
67868;SHT31;54672;46.096;14.470;2023-06-05T04:05:40;16.35;93.69
67868;SHT31;54672;46.096;14.470;2023-06-05T04:08:07;16.35;93.91
67868;SHT31;54672;46.096;14.470;2023-06-05T04:10:32;16.36;93.93
67868;SHT31;54672;46.096;14.470;2023-06-05T04:12:58;16.35;93.82
67868;SHT31;54672;46.096;14.470;2023-06-05T04:15:24;16.38;93.65
67868;SHT31;54672;46.096;14.470;2023-06-05T04:17:49;16.41;93.51
67868;SHT31;54672;46.096;14.470;2023-06-05T04:20:15;16.55;93.26
67868;SHT31;54672;46.096;14.470;2023-06-05T04:22:44;16.52;93.59
67868;SHT31;54672;46.096;14.470;2023-06-05T04:25:10;16.42;93.51
67868;SHT31;54672;46.096;14.470;2023-06-05T04:27:42;16.36;93.67
67868;SHT31;54672;46.096;14.470;2023-06-05T04:30:09;16.28;94.27
67868;SHT31;54672;46.096;14.470;2023-06-05T04:32:36;16.28;94.38
67868;SHT31;54672;46.096;14.470;2023-06-05T04:35:08;16.24;94.78
67868;SHT31;54672;46.096;14.470;2023-06-05T04:37:34;16.18;94.92
67868;SHT31;54672;46.096;14.470;2023-06-05T04:40:04;16.17;95.21
67868;SHT31;54672;46.096;14.470;2023-06-05T04:42:36;16.11;95.43
67868;SHT31;54672;46.096;14.470;2023-06-05T04:45:03;16.05;95.84
67868;SHT31;54672;46.096;14.470;2023-06-05T04:47:30;15.96;96.21
67868;SHT31;54672;46.096;14.470;2023-06-05T04:50:04;15.82;96.72
67868;SHT31;54672;46.096;14.470;2023-06-05T04:52:33;15.79;96.99
67868;SHT31;54672;46.096;14.470;2023-06-05T04:55:00;15.71;97.85
67868;SHT31;54672;46.096;14.470;2023-06-05T04:57:26;15.69;98.17
67868;SHT31;54672;46.096;14.470;2023-06-05T04:59:52;15.70;98.13
67868;SHT31;54672;46.096;14.470;2023-06-05T05:02:18;15.64;97.64
67868;SHT31;54672;46.096;14.470;2023-06-05T05:04:43;15.63;97.80
67868;SHT31;54672;46.096;14.470;2023-06-05T05:07:09;15.64;97.88
67868;SHT31;54672;46.096;14.470;2023-06-05T05:09:40;15.63;98.18
67868;SHT31;54672;46.096;14.470;2023-06-05T05:12:06;15.67;98.03
67868;SHT31;54672;46.096;14.470;2023-06-05T05:14:32;15.70;97.93
67868;SHT31;54672;46.096;14.470;2023-06-05T05:16:57;15.73;98.01
67868;SHT31;54672;46.096;14.470;2023-06-05T05:19:23;15.77;98.25
67868;SHT31;54672;46.096;14.470;2023-06-05T05:21:48;15.82;98.19
67868;SHT31;54672;46.096;14.470;2023-06-05T05:24:14;15.84;98.30
67868;SHT31;54672;46.096;14.470;2023-06-05T05:26:40;15.86;98.28
67868;SHT31;54672;46.096;14.470;2023-06-05T05:29:06;15.91;98.39
67868;SHT31;54672;46.096;14.470;2023-06-05T05:31:31;15.98;98.71
67868;SHT31;54672;46.096;14.470;2023-06-05T05:33:57;15.84;98.41
67868;SHT31;54672;46.096;14.470;2023-06-05T05:36:26;15.70;98.35
67868;SHT31;54672;46.096;14.470;2023-06-05T05:38:52;15.73;98.75
67868;SHT31;54672;46.096;14.470;2023-06-05T05:41:18;15.71;98.79
67868;SHT31;54672;46.096;14.470;2023-06-05T05:43:43;15.73;98.67
67868;SHT31;54672;46.096;14.470;2023-06-05T05:46:09;15.67;98.59
67868;SHT31;54672;46.096;14.470;2023-06-05T05:48:37;15.67;99.23
67868;SHT31;54672;46.096;14.470;2023-06-05T05:51:04;15.57;98.96
67868;SHT31;54672;46.096;14.470;2023-06-05T05:53:29;15.53;99.30
67868;SHT31;54672;46.096;14.470;2023-06-05T05:55:55;15.52;99.59
67868;SHT31;54672;46.096;14.470;2023-06-05T05:58:20;15.50;99.72
67868;SHT31;54672;46.096;14.470;2023-06-05T06:00:45;15.52;99.81
67868;SHT31;54672;46.096;14.470;2023-06-05T06:03:12;15.47;99.38
67868;SHT31;54672;46.096;14.470;2023-06-05T06:05:39;15.50;99.87
67868;SHT31;54672;46.096;14.470;2023-06-05T06:08:04;15.56;99.99
67868;SHT31;54672;46.096;14.470;2023-06-05T06:10:30;15.52;99.46
67868;SHT31;54672;46.096;14.470;2023-06-05T06:12:56;15.59;99.99
67868;SHT31;54672;46.096;14.470;2023-06-05T06:15:22;15.64;99.81
67868;SHT31;54672;46.096;14.470;2023-06-05T06:17:47;15.79;99.99
67868;SHT31;54672;46.096;14.470;2023-06-05T06:20:12;15.86;99.98
67868;SHT31;54672;46.096;14.470;2023-06-05T06:22:41;15.69;98.84
67868;SHT31;54672;46.096;14.470;2023-06-05T06:25:08;15.59;99.24
67868;SHT31;54672;46.096;14.470;2023-06-05T06:27:34;15.56;99.25
67868;SHT31;54672;46.096;14.470;2023-06-05T06:29:59;15.60;99.20
67868;SHT31;54672;46.096;14.470;2023-06-05T06:32:25;15.53;98.71
67868;SHT31;54672;46.096;14.470;2023-06-05T06:34:53;15.50;98.88
67868;SHT31;54672;46.096;14.470;2023-06-05T06:37:20;15.55;99.23
67868;SHT31;54672;46.096;14.470;2023-06-05T06:39:46;15.57;99.44
67868;SHT31;54672;46.096;14.470;2023-06-05T06:42:12;15.55;98.62
67868;SHT31;54672;46.096;14.470;2023-06-05T06:44:39;15.62;99.34
67868;SHT31;54672;46.096;14.470;2023-06-05T06:47:05;15.57;98.88
67868;SHT31;54672;46.096;14.470;2023-06-05T06:49:31;15.55;98.66
67868;SHT31;54672;46.096;14.470;2023-06-05T06:51:57;15.56;99.07
67868;SHT31;54672;46.096;14.470;2023-06-05T06:54:22;15.63;99.35
67868;SHT31;54672;46.096;14.470;2023-06-05T06:56:48;15.53;98.69
67868;SHT31;54672;46.096;14.470;2023-06-05T06:59:15;15.62;98.41
67868;SHT31;54672;46.096;14.470;2023-06-05T07:01:45;15.76;98.54
67868;SHT31;54672;46.096;14.470;2023-06-05T07:04:20;15.83;98.03
67868;SHT31;54672;46.096;14.470;2023-06-05T07:06:46;15.84;98.08
67868;SHT31;54672;46.096;14.470;2023-06-05T07:09:13;16.00;97.97
67868;SHT31;54672;46.096;14.470;2023-06-05T07:11:39;16.00;97.13
67868;SHT31;54672;46.096;14.470;2023-06-05T07:14:04;16.08;98.04
67868;SHT31;54672;46.096;14.470;2023-06-05T07:16:30;16.31;97.61
67868;SHT31;54672;46.096;14.470;2023-06-05T07:18:56;16.34;96.94
67868;SHT31;54672;46.096;14.470;2023-06-05T07:21:22;16.31;96.98
67868;SHT31;54672;46.096;14.470;2023-06-05T07:23:48;16.24;97.34
67868;SHT31;54672;46.096;14.470;2023-06-05T07:26:19;16.20;97.24
67868;SHT31;54672;46.096;14.470;2023-06-05T07:28:45;16.28;97.84
67868;SHT31;54672;46.096;14.470;2023-06-05T07:31:14;16.15;97.04
67868;SHT31;54672;46.096;14.470;2023-06-05T07:33:41;16.00;97.49
67868;SHT31;54672;46.096;14.470;2023-06-05T07:36:07;16.01;97.59
67868;SHT31;54672;46.096;14.470;2023-06-05T07:38:33;15.96;97.93
67868;SHT31;54672;46.096;14.470;2023-06-05T07:40:58;15.98;98.60
67868;SHT31;54672;46.096;14.470;2023-06-05T07:43:26;15.96;98.02
67868;SHT31;54672;46.096;14.470;2023-06-05T07:45:52;15.90;97.43
67868;SHT31;54672;46.096;14.470;2023-06-05T07:48:17;15.98;98.05
67868;SHT31;54672;46.096;14.470;2023-06-05T07:50:42;16.01;97.85
67868;SHT31;54672;46.096;14.470;2023-06-05T07:53:08;16.00;98.00
67868;SHT31;54672;46.096;14.470;2023-06-05T07:55:33;15.98;98.10
67868;SHT31;54672;46.096;14.470;2023-06-05T07:57:58;16.07;98.04
67868;SHT31;54672;46.096;14.470;2023-06-05T08:00:26;16.11;98.22
67868;SHT31;54672;46.096;14.470;2023-06-05T08:02:52;16.13;97.91
67868;SHT31;54672;46.096;14.470;2023-06-05T08:05:18;16.14;97.89
67868;SHT31;54672;46.096;14.470;2023-06-05T08:07:45;16.22;98.05
67868;SHT31;54672;46.096;14.470;2023-06-05T08:10:11;16.03;97.40
67868;SHT31;54672;46.096;14.470;2023-06-05T08:12:37;16.08;97.44
67868;SHT31;54672;46.096;14.470;2023-06-05T08:15:03;16.18;97.35
67868;SHT31;54672;46.096;14.470;2023-06-05T08:17:28;16.13;97.78
67868;SHT31;54672;46.096;14.470;2023-06-05T08:19:54;16.17;98.10
67868;SHT31;54672;46.096;14.470;2023-06-05T08:22:19;16.24;98.05
67868;SHT31;54672;46.096;14.470;2023-06-05T08:24:45;16.31;97.48
67868;SHT31;54672;46.096;14.470;2023-06-05T08:27:10;16.40;97.50
67868;SHT31;54672;46.096;14.470;2023-06-05T08:29:36;16.47;97.86
67868;SHT31;54672;46.096;14.470;2023-06-05T08:32:05;16.36;97.21
67868;SHT31;54672;46.096;14.470;2023-06-05T08:34:31;16.42;97.97
67868;SHT31;54672;46.096;14.470;2023-06-05T08:36:57;16.35;97.38
67868;SHT31;54672;46.096;14.470;2023-06-05T08:39:24;16.34;98.06
67868;SHT31;54672;46.096;14.470;2023-06-05T08:41:53;16.32;98.06
67868;SHT31;54672;46.096;14.470;2023-06-05T08:44:20;16.38;97.86
67868;SHT31;54672;46.096;14.470;2023-06-05T08:46:46;16.38;97.82
67868;SHT31;54672;46.096;14.470;2023-06-05T08:49:14;16.45;98.34
67868;SHT31;54672;46.096;14.470;2023-06-05T08:51:41;16.45;97.82
67868;SHT31;54672;46.096;14.470;2023-06-05T08:54:08;16.42;97.40
67868;SHT31;54672;46.096;14.470;2023-06-05T08:56:39;16.55;98.05
67868;SHT31;54672;46.096;14.470;2023-06-05T08:59:05;16.40;97.47
67868;SHT31;54672;46.096;14.470;2023-06-05T09:01:31;16.47;97.95
67868;SHT31;54672;46.096;14.470;2023-06-05T09:03:58;16.55;97.47
67868;SHT31;54672;46.096;14.470;2023-06-05T09:06:23;16.62;97.94
67868;SHT31;54672;46.096;14.470;2023-06-05T09:08:48;16.54;96.54
67868;SHT31;54672;46.096;14.470;2023-06-05T09:11:21;16.63;96.68
67868;SHT31;54672;46.096;14.470;2023-06-05T09:13:47;16.73;96.63
67868;SHT31;54672;46.096;14.470;2023-06-05T09:16:13;17.00;97.42
67868;SHT31;54672;46.096;14.470;2023-06-05T09:18:55;16.83;96.13
67868;SHT31;54672;46.096;14.470;2023-06-05T09:21:21;16.94;96.50
67868;SHT31;54672;46.096;14.470;2023-06-05T09:23:46;16.93;96.60
67868;SHT31;54672;46.096;14.470;2023-06-05T09:26:12;17.17;96.29
67868;SHT31;54672;46.096;14.470;2023-06-05T09:28:53;17.07;96.41
67868;SHT31;54672;46.096;14.470;2023-06-05T09:31:19;17.00;96.34
67868;SHT31;54672;46.096;14.470;2023-06-05T09:33:54;16.99;96.15
67868;SHT31;54672;46.096;14.470;2023-06-05T09:36:20;17.00;95.42
67868;SHT31;54672;46.096;14.470;2023-06-05T09:38:46;17.07;95.53
67868;SHT31;54672;46.096;14.470;2023-06-05T09:41:14;17.09;95.41
67868;SHT31;54672;46.096;14.470;2023-06-05T09:43:45;17.22;95.06
67868;SHT31;54672;46.096;14.470;2023-06-05T09:46:15;17.53;95.64
67868;SHT31;54672;46.096;14.470;2023-06-05T09:48:42;17.92;93.85
67868;SHT31;54672;46.096;14.470;2023-06-05T09:51:12;18.16;93.22
67868;SHT31;54672;46.096;14.470;2023-06-05T09:53:43;18.08;93.90
67868;SHT31;54672;46.096;14.470;2023-06-05T09:56:12;18.13;92.52
67868;SHT31;54672;46.096;14.470;2023-06-05T09:58:37;17.78;93.40
67868;SHT31;54672;46.096;14.470;2023-06-05T10:01:05;17.75;93.87
67868;SHT31;54672;46.096;14.470;2023-06-05T10:03:36;18.09;93.35
67868;SHT31;54672;46.096;14.470;2023-06-05T10:06:04;18.02;92.05
67868;SHT31;54672;46.096;14.470;2023-06-05T10:08:30;17.79;93.01
67868;SHT31;54672;46.096;14.470;2023-06-05T10:10:56;17.70;94.25
67868;SHT31;54672;46.096;14.470;2023-06-05T10:13:22;17.75;93.74
67868;SHT31;54672;46.096;14.470;2023-06-05T10:15:49;17.68;93.98
67868;SHT31;54672;46.096;14.470;2023-06-05T10:18:16;17.70;93.10
67868;SHT31;54672;46.096;14.470;2023-06-05T10:20:41;17.58;94.19
67868;SHT31;54672;46.096;14.470;2023-06-05T10:23:07;17.78;94.08
67868;SHT31;54672;46.096;14.470;2023-06-05T10:25:34;17.82;92.77
67868;SHT31;54672;46.096;14.470;2023-06-05T10:31:17;17.70;93.71
67868;SHT31;54672;46.096;14.470;2023-06-05T10:34:02;17.70;93.96
67868;SHT31;54672;46.096;14.470;2023-06-05T10:39:10;17.44;94.35
67868;SHT31;54672;46.096;14.470;2023-06-05T10:41:36;17.48;94.12
67868;SHT31;54672;46.096;14.470;2023-06-05T10:44:02;17.53;94.09
67868;SHT31;54672;46.096;14.470;2023-06-05T10:49:10;17.31;93.19
67868;SHT31;54672;46.096;14.470;2023-06-05T10:51:45;17.23;93.56
67868;SHT31;54672;46.096;14.470;2023-06-05T10:54:13;17.12;94.45
67868;SHT31;54672;46.096;14.470;2023-06-05T10:56:59;17.14;95.25
67868;SHT31;54672;46.096;14.470;2023-06-05T10:59:30;17.30;95.60
67868;SHT31;54672;46.096;14.470;2023-06-05T11:07:22;17.34;95.15
67868;SHT31;54672;46.096;14.470;2023-06-05T11:15:42;17.45;93.78
67868;SHT31;54672;46.096;14.470;2023-06-05T11:18:30;17.60;93.02
67868;SHT31;54672;46.096;14.470;2023-06-05T11:20:57;17.89;92.89
67868;SHT31;54672;46.096;14.470;2023-06-05T11:23:22;18.02;91.23
67868;SHT31;54672;46.096;14.470;2023-06-05T11:25:52;18.15;91.07
67868;SHT31;54672;46.096;14.470;2023-06-05T11:28:40;17.98;90.86
67868;SHT31;54672;46.096;14.470;2023-06-05T11:31:06;17.63;91.61
67868;SHT31;54672;46.096;14.470;2023-06-05T11:33:31;17.45;92.24
67868;SHT31;54672;46.096;14.470;2023-06-05T11:36:06;17.31;92.99
67868;SHT31;54672;46.096;14.470;2023-06-05T11:38:33;17.37;93.05
67868;SHT31;54672;46.096;14.470;2023-06-05T11:40:59;17.26;92.79
67868;SHT31;54672;46.096;14.470;2023-06-05T11:43:24;17.24;93.74
67868;SHT31;54672;46.096;14.470;2023-06-05T11:45:53;17.17;94.07
67868;SHT31;54672;46.096;14.470;2023-06-05T11:48:19;16.99;94.58
67868;SHT31;54672;46.096;14.470;2023-06-05T11:53:17;16.77;95.29
67868;SHT31;54672;46.096;14.470;2023-06-05T11:55:42;16.85;95.91
67868;SHT31;54672;46.096;14.470;2023-06-05T11:58:22;16.93;95.84
67868;SHT31;54672;46.096;14.470;2023-06-05T12:00:48;17.02;95.14
67868;SHT31;54672;46.096;14.470;2023-06-05T12:03:20;17.12;95.29
67868;SHT31;54672;46.096;14.470;2023-06-05T12:05:49;17.19;94.50
67868;SHT31;54672;46.096;14.470;2023-06-05T12:08:25;17.26;95.24
67868;SHT31;54672;46.096;14.470;2023-06-05T12:10:54;17.24;94.62
67868;SHT31;54672;46.096;14.470;2023-06-05T12:13:21;17.27;95.10
67868;SHT31;54672;46.096;14.470;2023-06-05T12:15:59;17.16;95.05
67868;SHT31;54672;46.096;14.470;2023-06-05T12:18:32;17.02;95.56
67868;SHT31;54672;46.096;14.470;2023-06-05T12:20:58;17.03;95.95
67868;SHT31;54672;46.096;14.470;2023-06-05T12:23:24;17.02;96.16
67868;SHT31;54672;46.096;14.470;2023-06-05T12:26:03;16.87;96.22
67868;SHT31;54672;46.096;14.470;2023-06-05T12:28:29;16.87;96.83
67868;SHT31;54672;46.096;14.470;2023-06-05T12:30:56;16.82;96.45
67868;SHT31;54672;46.096;14.470;2023-06-05T12:33:22;16.65;96.28
67868;SHT31;54672;46.096;14.470;2023-06-05T12:36:07;16.54;96.53
67868;SHT31;54672;46.096;14.470;2023-06-05T12:38:40;16.56;97.02
67868;SHT31;54672;46.096;14.470;2023-06-05T12:41:09;16.59;97.00
67868;SHT31;54672;46.096;14.470;2023-06-05T12:43:35;16.59;96.75
67868;SHT31;54672;46.096;14.470;2023-06-05T12:46:01;16.56;96.94
67868;SHT31;54672;46.096;14.470;2023-06-05T12:48:27;16.47;96.96
67868;SHT31;54672;46.096;14.470;2023-06-05T12:50:52;16.49;97.18
67868;SHT31;54672;46.096;14.470;2023-06-05T12:53:20;16.55;97.40
67868;SHT31;54672;46.096;14.470;2023-06-05T12:55:45;16.51;97.54
67868;SHT31;54672;46.096;14.470;2023-06-05T12:58:11;16.56;97.63
67868;SHT31;54672;46.096;14.470;2023-06-05T13:00:36;16.54;97.54
67868;SHT31;54672;46.096;14.470;2023-06-05T13:03:02;16.59;97.62
67868;SHT31;54672;46.096;14.470;2023-06-05T13:05:29;16.58;97.54
67868;SHT31;54672;46.096;14.470;2023-06-05T13:07:55;16.59;97.50
67868;SHT31;54672;46.096;14.470;2023-06-05T13:10:20;16.59;97.57
67868;SHT31;54672;46.096;14.470;2023-06-05T13:12:46;16.58;97.43
67868;SHT31;54672;46.096;14.470;2023-06-05T13:15:12;16.41;97.11
67868;SHT31;54672;46.096;14.470;2023-06-05T13:17:37;16.31;96.83
67868;SHT31;54672;46.096;14.470;2023-06-05T13:20:04;16.22;97.03
67868;SHT31;54672;46.096;14.470;2023-06-05T13:22:34;16.15;97.35
67868;SHT31;54672;46.096;14.470;2023-06-05T13:25:00;16.14;97.48
67868;SHT31;54672;46.096;14.470;2023-06-05T13:27:25;16.10;98.20
67868;SHT31;54672;46.096;14.470;2023-06-05T13:29:51;16.20;98.16
67868;SHT31;54672;46.096;14.470;2023-06-05T13:32:16;16.32;97.88
67868;SHT31;54672;46.096;14.470;2023-06-05T13:34:41;16.35;98.03
67868;SHT31;54672;46.096;14.470;2023-06-05T13:37:07;16.36;97.70
67868;SHT31;54672;46.096;14.470;2023-06-05T13:39:32;16.31;97.50
67868;SHT31;54672;46.096;14.470;2023-06-05T13:41:57;16.31;97.97
67868;SHT31;54672;46.096;14.470;2023-06-05T13:44:23;16.22;97.70
67868;SHT31;54672;46.096;14.470;2023-06-05T13:46:48;16.25;97.62
67868;SHT31;54672;46.096;14.470;2023-06-05T13:49:14;16.20;97.63
67868;SHT31;54672;46.096;14.470;2023-06-05T13:51:41;16.26;98.06
67868;SHT31;54672;46.096;14.470;2023-06-05T13:54:06;16.29;97.79
67868;SHT31;54672;46.096;14.470;2023-06-05T13:56:32;16.15;98.33
67868;SHT31;54672;46.096;14.470;2023-06-05T13:58:57;16.18;98.49
67868;SHT31;54672;46.096;14.470;2023-06-05T14:01:23;16.18;98.29
67868;SHT31;54672;46.096;14.470;2023-06-05T14:03:49;16.14;97.81
67868;SHT31;54672;46.096;14.470;2023-06-05T14:06:16;16.05;98.38
67868;SHT31;54672;46.096;14.470;2023-06-05T14:08:45;16.04;98.80
67868;SHT31;54672;46.096;14.470;2023-06-05T14:11:10;16.13;99.39
67868;SHT31;54672;46.096;14.470;2023-06-05T14:13:36;16.15;99.59
67868;SHT31;54672;46.096;14.470;2023-06-05T14:16:02;16.13;99.55
67868;SHT31;54672;46.096;14.470;2023-06-05T14:18:29;16.17;99.11
67868;SHT31;54672;46.096;14.470;2023-06-05T14:20:55;16.17;98.26
67868;SHT31;54672;46.096;14.470;2023-06-05T14:23:20;16.24;98.00
67868;SHT31;54672;46.096;14.470;2023-06-05T14:25:49;16.29;98.16
67868;SHT31;54672;46.096;14.470;2023-06-05T14:28:14;16.35;98.32
67868;SHT31;54672;46.096;14.470;2023-06-05T14:30:40;16.41;98.48
67868;SHT31;54672;46.096;14.470;2023-06-05T14:33:05;16.38;98.45
67868;SHT31;54672;46.096;14.470;2023-06-05T14:35:31;16.42;98.43
67868;SHT31;54672;46.096;14.470;2023-06-05T14:37:56;16.41;98.79
67868;SHT31;54672;46.096;14.470;2023-06-05T14:40:22;16.42;99.23
67868;SHT31;54672;46.096;14.470;2023-06-05T14:42:49;16.41;98.97
67868;SHT31;54672;46.096;14.470;2023-06-05T14:45:15;16.41;98.91
67868;SHT31;54672;46.096;14.470;2023-06-05T14:47:40;16.34;98.77
67868;SHT31;54672;46.096;14.470;2023-06-05T14:50:06;16.36;98.51
67868;SHT31;54672;46.096;14.470;2023-06-05T14:52:32;16.28;98.72
67868;SHT31;54672;46.096;14.470;2023-06-05T14:54:58;16.34;99.00
67868;SHT31;54672;46.096;14.470;2023-06-05T14:57:23;16.42;98.77
67868;SHT31;54672;46.096;14.470;2023-06-05T14:59:49;16.38;98.51
67868;SHT31;54672;46.096;14.470;2023-06-05T15:02:14;16.36;98.34
67868;SHT31;54672;46.096;14.470;2023-06-05T15:04:39;16.38;98.49
67868;SHT31;54672;46.096;14.470;2023-06-05T15:07:05;16.41;98.54
67868;SHT31;54672;46.096;14.470;2023-06-05T15:09:31;16.41;98.22
67868;SHT31;54672;46.096;14.470;2023-06-05T15:11:56;16.40;98.07
67868;SHT31;54672;46.096;14.470;2023-06-05T15:14:22;16.35;98.04
67868;SHT31;54672;46.096;14.470;2023-06-05T15:16:49;16.26;98.01
67868;SHT31;54672;46.096;14.470;2023-06-05T15:19:15;16.31;98.57
67868;SHT31;54672;46.096;14.470;2023-06-05T15:21:41;16.21;97.70
67868;SHT31;54672;46.096;14.470;2023-06-05T15:24:06;16.17;97.78
67868;SHT31;54672;46.096;14.470;2023-06-05T15:26:32;16.11;97.74
67868;SHT31;54672;46.096;14.470;2023-06-05T15:28:58;16.10;97.92
67868;SHT31;54672;46.096;14.470;2023-06-05T15:31:23;16.17;98.08
67868;SHT31;54672;46.096;14.470;2023-06-05T15:33:48;16.17;98.12
67868;SHT31;54672;46.096;14.470;2023-06-05T15:36:14;16.21;98.51
67868;SHT31;54672;46.096;14.470;2023-06-05T15:38:39;16.21;98.47